Time;durP1;ratioP1;P1;durP2;ratioP2;P2;SDS_P1;SDS_P2;PMS_P1;PMS_P2;Temp;Humidity;BMP_temperature;BMP_pressure;BME280_temperature;BME280_humidity;BME280_pressure;Samples;Min_cycle;Max_cycle;Signal;HPM_P1;HPM_P2
2021/08/15 00:02:14;;;;;;;3.08;2.47;;;28.70;57.00;;;;;;5041726;28;20405;-63
2021/08/15 00:04:40;;;;;;;3.28;2.30;;;28.70;57.00;;;;;;5046356;28;20033;-66
2021/08/15 00:07:06;;;;;;;2.70;2.15;;;28.70;57.00;;;;;;5047123;28;20484;-66
2021/08/15 00:09:32;;;;;;;3.47;2.88;;;28.60;56.90;;;;;;5043335;28;20124;-67
2021/08/15 00:11:58;;;;;;;2.70;2.20;;;28.70;57.00;;;;;;5044754;28;20397;-64
2021/08/15 00:14:23;;;;;;;2.83;2.33;;;28.70;57.00;;;;;;5051289;28;20025;-67
2021/08/15 00:16:49;;;;;;;3.22;2.60;;;28.60;56.90;;;;;;5051686;28;20028;-62
2021/08/15 00:19:14;;;;;;;2.80;2.20;;;28.60;56.90;;;;;;5050088;28;20032;-66
2021/08/15 00:21:40;;;;;;;2.60;2.20;;;28.60;56.90;;;;;;5051277;28;20143;-60
2021/08/15 00:24:06;;;;;;;2.83;2.35;;;28.60;56.90;;;;;;5056696;28;20047;-65
2021/08/15 00:26:32;;;;;;;2.92;2.22;;;28.60;56.90;;;;;;5050729;28;20373;-66
2021/08/15 00:28:58;;;;;;;3.13;2.20;;;28.60;56.90;;;;;;5051329;28;20138;-63
2021/08/15 00:31:27;;;;;;;3.25;2.53;;;28.60;56.90;;;;;;5050137;28;20029;-67
2021/08/15 00:33:54;;;;;;;3.15;2.35;;;28.60;56.90;;;;;;5062436;28;20052;-67
2021/08/15 00:36:20;;;;;;;2.97;2.47;;;28.60;56.90;;;;;;5065551;28;20044;-67
2021/08/15 00:38:46;;;;;;;3.10;2.28;;;28.60;56.90;;;;;;5050323;28;20368;-66
2021/08/15 00:41:12;;;;;;;3.17;2.47;;;28.60;56.90;;;;;;5050326;28;20091;-59
2021/08/15 00:43:38;;;;;;;2.70;2.30;;;28.60;56.90;;;;;;5049687;28;20447;-66
2021/08/15 00:46:08;;;;;;;2.90;2.45;;;28.60;56.90;;;;;;5051095;28;20163;-68
2021/08/15 00:48:33;;;;;;;2.80;2.20;;;28.60;56.90;;;;;;5049303;28;20039;-60
2021/08/15 00:50:59;;;;;;;3.30;2.40;;;28.60;56.90;;;;;;5056599;28;20107;-65
2021/08/15 00:53:24;;;;;;;3.30;2.58;;;28.60;56.90;;;;;;5050410;28;20029;-66
2021/08/15 00:55:50;;;;;;;2.97;2.35;;;28.60;56.90;;;;;;5049466;28;20029;-64
2021/08/15 00:58:16;;;;;;;2.70;2.13;;;28.60;56.90;;;;;;5050038;28;20025;-68
2021/08/15 01:00:41;;;;;;;2.72;2.20;;;28.60;56.90;;;;;;5050034;28;20048;-62
2021/08/15 01:03:07;;;;;;;3.15;2.30;;;28.60;56.90;;;;;;5044836;28;20025;-61
2021/08/15 01:05:33;;;;;;;2.50;2.20;;;28.60;56.90;;;;;;5066220;28;20024;-66
2021/08/15 01:07:59;;;;;;;2.60;2.10;;;28.60;56.90;;;;;;5048045;28;20025;-66
2021/08/15 01:10:25;;;;;;;2.58;2.13;;;28.60;56.90;;;;;;5034957;28;20322;-68
2021/08/15 01:12:50;;;;;;;2.80;2.22;;;28.50;56.80;;;;;;5046477;28;20042;-63
2021/08/15 01:15:17;;;;;;;3.55;2.50;;;28.50;56.80;;;;;;5050580;28;20025;-63
2021/08/15 01:17:43;;;;;;;2.90;2.30;;;28.50;56.80;;;;;;5040560;28;20079;-68
2021/08/15 01:20:10;;;;;;;2.90;2.40;;;28.50;56.80;;;;;;5041398;28;20040;-67
2021/08/15 01:22:43;;;;;;;2.75;2.30;;;28.50;56.80;;;;;;5044020;28;20136;-66
2021/08/15 01:25:10;;;;;;;2.97;2.45;;;28.50;56.80;;;;;;5046408;28;20032;-66
2021/08/15 01:27:44;;;;;;;3.38;2.40;;;28.50;56.80;;;;;;5048657;28;20037;-67
2021/08/15 01:30:12;;;;;;;3.13;2.45;;;28.50;56.80;;;;;;5055372;28;20053;-62
2021/08/15 01:32:43;;;;;;;2.97;2.40;;;28.50;56.80;;;;;;5048265;28;20506;-66
2021/08/15 01:35:10;;;;;;;3.05;2.58;;;28.50;56.80;;;;;;5054833;28;20040;-66
2021/08/15 01:37:35;;;;;;;2.90;2.30;;;28.50;56.80;;;;;;5049819;28;20041;-67
2021/08/15 01:40:02;;;;;;;2.90;2.42;;;28.50;56.80;;;;;;5048999;28;20755;-65
2021/08/15 01:42:30;;;;;;;2.90;2.30;;;28.50;56.80;;;;;;5048536;28;20043;-61
2021/08/15 01:44:56;;;;;;;3.30;2.15;;;28.50;56.80;;;;;;5048405;28;20021;-66
2021/08/15 01:47:21;;;;;;;3.20;2.47;;;28.50;56.80;;;;;;5049478;28;20029;-66
2021/08/15 01:49:47;;;;;;;2.88;2.30;;;28.50;56.80;;;;;;5048737;28;20113;-62
2021/08/15 01:52:13;;;;;;;2.90;2.30;;;28.50;56.80;;;;;;5048485;28;20033;-64
2021/08/15 01:54:38;;;;;;;2.75;2.33;;;28.50;56.70;;;;;;5049787;28;20037;-61
2021/08/15 01:57:04;;;;;;;3.08;2.40;;;28.50;56.80;;;;;;5047909;28;20083;-65
2021/08/15 01:59:30;;;;;;;2.97;2.42;;;28.50;56.80;;;;;;5060006;28;20452;-65
2021/08/15 02:01:55;;;;;;;2.75;2.30;;;28.50;56.80;;;;;;5047614;28;20049;-67
2021/08/15 02:04:24;;;;;;;3.10;2.20;;;28.50;56.80;;;;;;5048254;28;20587;-68
2021/08/15 02:06:50;;;;;;;3.10;2.40;;;28.50;56.80;;;;;;5049878;28;20100;-67
2021/08/15 02:09:15;;;;;;;2.92;2.40;;;28.50;56.80;;;;;;5044102;28;20113;-68
2021/08/15 02:11:41;;;;;;;3.08;2.20;;;28.50;56.70;;;;;;5039668;28;20033;-64
2021/08/15 02:14:07;;;;;;;3.00;2.50;;;28.40;56.70;;;;;;5048984;28;20111;-60
2021/08/15 02:16:33;;;;;;;2.58;2.25;;;28.50;56.70;;;;;;5046938;28;20152;-67
2021/08/15 02:18:58;;;;;;;2.60;2.30;;;28.40;56.70;;;;;;5067426;28;20059;-62
2021/08/15 02:21:24;;;;;;;3.10;2.17;;;28.40;56.70;;;;;;5058855;28;20033;-68
2021/08/15 02:23:49;;;;;;;2.75;2.28;;;28.50;56.70;;;;;;5048714;28;20025;-62
2021/08/15 02:26:15;;;;;;;2.72;2.33;;;28.40;56.60;;;;;;5053609;28;20163;-65
2021/08/15 02:28:41;;;;;;;2.63;2.25;;;28.40;56.60;;;;;;5062423;28;20075;-63
2021/08/15 02:31:06;;;;;;;3.08;2.47;;;28.40;56.60;;;;;;5049798;28;20021;-63
2021/08/15 02:33:32;;;;;;;2.72;2.40;;;28.40;56.70;;;;;;5046419;28;20174;-66
2021/08/15 02:35:57;;;;;;;2.85;2.30;;;28.40;56.60;;;;;;5047222;28;20041;-67
2021/08/15 02:38:23;;;;;;;3.00;2.38;;;28.40;56.60;;;;;;5036194;28;20037;-66
2021/08/15 02:40:49;;;;;;;2.67;2.30;;;28.40;57.20;;;;;;5036777;28;20029;-62
2021/08/15 02:43:15;;;;;;;2.80;2.40;;;28.40;56.60;;;;;;5051738;28;20037;-66
2021/08/15 02:45:40;;;;;;;3.00;2.20;;;28.40;56.60;;;;;;5065238;28;20027;-66
2021/08/15 02:48:06;;;;;;;2.83;2.35;;;28.40;56.60;;;;;;5054120;28;20483;-62
2021/08/15 02:50:32;;;;;;;3.13;2.40;;;28.40;56.60;;;;;;5044931;28;20545;-65
2021/08/15 02:52:57;;;;;;;3.42;2.58;;;28.40;56.60;;;;;;5043125;28;20122;-64
2021/08/15 02:55:23;;;;;;;3.03;2.15;;;28.40;56.60;;;;;;5048583;28;20538;-64
2021/08/15 02:57:49;;;;;;;2.70;2.30;;;28.40;56.60;;;;;;5048998;28;20029;-64
2021/08/15 03:00:15;;;;;;;2.67;2.28;;;28.40;56.60;;;;;;5046879;28;20059;-66
2021/08/15 03:02:41;;;;;;;2.80;2.35;;;28.40;56.60;;;;;;5046639;28;20392;-63
2021/08/15 03:05:07;;;;;;;2.70;2.20;;;28.40;57.20;;;;;;5046326;28;20108;-61
2021/08/15 03:07:33;;;;;;;2.80;2.30;;;28.40;56.60;;;;;;5051520;28;20032;-65
2021/08/15 03:09:59;;;;;;;2.65;2.13;;;28.40;56.60;;;;;;5039280;28;20029;-64
2021/08/15 03:12:25;;;;;;;3.30;2.47;;;28.40;56.60;;;;;;5025575;28;20069;-65
2021/08/15 03:14:50;;;;;;;4.30;2.47;;;28.40;56.60;;;;;;5050008;28;20028;-68
2021/08/15 03:17:16;;;;;;;2.85;2.20;;;28.40;56.60;;;;;;5065253;28;20061;-63
2021/08/15 03:19:42;;;;;;;2.97;2.40;;;28.40;56.60;;;;;;5040719;28;20111;-66
2021/08/15 03:22:08;;;;;;;3.00;2.50;;;28.40;56.60;;;;;;5065207;28;20062;-68
2021/08/15 03:24:34;;;;;;;2.63;2.22;;;28.40;56.60;;;;;;5056866;28;20091;-66
2021/08/15 03:27:00;;;;;;;2.92;2.28;;;28.30;56.50;;;;;;5034966;28;20080;-61
2021/08/15 03:29:26;;;;;;;2.83;2.47;;;28.30;56.50;;;;;;5036823;28;20033;-64
2021/08/15 03:31:52;;;;;;;2.80;2.30;;;28.30;56.50;;;;;;5046157;28;20052;-64
2021/08/15 03:34:19;;;;;;;3.20;2.40;;;28.30;56.60;;;;;;5045523;28;20516;-62
2021/08/15 03:36:46;;;;;;;4.00;2.40;;;28.30;56.60;;;;;;5050838;28;20075;-62
2021/08/15 03:39:12;;;;;;;2.83;2.30;;;28.30;56.50;;;;;;5049289;28;20029;-64
2021/08/15 03:41:39;;;;;;;2.55;1.92;;;28.30;56.50;;;;;;5045676;28;20086;-67
2021/08/15 03:44:04;;;;;;;2.60;2.25;;;28.30;56.60;;;;;;5046702;28;20033;-64
2021/08/15 03:46:30;;;;;;;3.35;2.80;;;28.30;56.60;;;;;;5048822;28;20086;-68
2021/08/15 03:48:55;;;;;;;3.03;2.33;;;28.30;56.60;;;;;;5046203;28;20033;-65
2021/08/15 03:51:21;;;;;;;3.13;2.50;;;28.30;56.60;;;;;;5042344;28;20036;-66
2021/08/15 03:53:47;;;;;;;2.92;2.20;;;28.20;56.50;;;;;;5046335;28;20429;-66
2021/08/15 03:56:12;;;;;;;2.67;2.33;;;28.20;56.50;;;;;;5051740;28;20571;-68
2021/08/15 03:58:38;;;;;;;3.90;2.50;;;28.20;56.50;;;;;;5058608;28;20036;-63
2021/08/15 04:01:04;;;;;;;2.80;2.40;;;28.20;56.60;;;;;;5046090;28;20177;-63
2021/08/15 04:03:29;;;;;;;3.08;2.40;;;28.20;56.50;;;;;;5045591;28;20043;-67
2021/08/15 04:05:56;;;;;;;2.83;2.40;;;28.20;56.50;;;;;;5041800;28;20091;-63
2021/08/15 04:08:23;;;;;;;3.38;2.42;;;28.20;56.50;;;;;;5039457;28;20427;-66
2021/08/15 04:10:49;;;;;;;3.03;2.60;;;28.20;56.50;;;;;;5029667;28;20077;-66
2021/08/15 04:13:15;;;;;;;4.07;2.63;;;28.20;56.50;;;;;;5060847;28;20815;-66
2021/08/15 04:15:40;;;;;;;2.78;2.35;;;28.20;56.50;;;;;;5048733;28;20023;-67
2021/08/15 04:18:06;;;;;;;2.90;2.30;;;28.20;56.50;;;;;;5064401;28;20056;-66
2021/08/15 04:20:31;;;;;;;2.90;2.30;;;28.20;56.60;;;;;;5055014;28;20434;-60
2021/08/15 04:22:57;;;;;;;3.60;2.33;;;28.20;56.50;;;;;;5039214;28;20082;-63
2021/08/15 04:25:23;;;;;;;3.05;2.45;;;28.20;56.50;;;;;;5056481;28;20025;-64
2021/08/15 04:27:48;;;;;;;2.90;2.25;;;28.20;56.50;;;;;;5045668;28;20464;-62
2021/08/15 04:30:14;;;;;;;3.15;2.20;;;28.20;56.50;;;;;;5044132;28;20072;-61
2021/08/15 04:32:40;;;;;;;2.83;2.35;;;28.20;56.60;;;;;;5049431;28;20043;-64
2021/08/15 04:35:06;;;;;;;3.58;2.88;;;28.20;56.40;;;;;;5046616;28;20024;-68
2021/08/15 04:37:32;;;;;;;4.20;3.70;;;28.20;55.50;;;;;;5051443;28;20052;-61
2021/08/15 04:39:58;;;;;;;4.75;3.53;;;28.10;54.40;;;;;;5046868;28;20122;-64
2021/08/15 04:42:24;;;;;;;4.30;3.90;;;28.10;53.60;;;;;;5044103;28;20075;-66
2021/08/15 04:44:50;;;;;;;5.15;3.95;;;28.00;53.20;;;;;;5048317;28;20056;-60
2021/08/15 04:47:15;;;;;;;4.32;3.90;;;28.00;53.10;;;;;;5048535;28;20033;-61
2021/08/15 04:49:41;;;;;;;5.63;4.20;;;27.90;52.90;;;;;;5046917;28;20469;-66
2021/08/15 04:52:07;;;;;;;4.10;3.70;;;28.00;52.80;;;;;;5046242;28;20475;-65
2021/08/15 04:54:33;;;;;;;4.82;4.32;;;27.90;52.60;;;;;;5046466;28;20128;-66
2021/08/15 04:56:59;;;;;;;4.78;4.25;;;27.90;52.60;;;;;;5045880;28;20348;-65
2021/08/15 04:59:26;;;;;;;6.43;4.10;;;27.90;52.50;;;;;;5055419;28;20039;-61
2021/08/15 05:01:52;;;;;;;7.53;4.28;;;27.80;52.50;;;;;;5059642;28;20606;-65
2021/08/15 05:04:18;;;;;;;4.68;3.88;;;27.80;52.50;;;;;;5049166;28;20029;-62
2021/08/15 05:06:43;;;;;;;4.85;3.80;;;27.80;52.50;;;;;;5049987;28;20022;-67
2021/08/15 05:09:11;;;;;;;5.43;4.43;;;27.80;52.50;;;;;;5049853;28;20024;-65
2021/08/15 05:11:40;;;;;;;5.78;4.40;;;27.70;52.60;;;;;;5052095;28;20025;-62
2021/08/15 05:14:09;;;;;;;;;;;27.70;52.90;;;;;;5056119;28;20036;-67
2021/08/15 05:16:34;;;;;;;4.57;4.10;;;27.60;52.70;;;;;;5040101;28;19916;-63
2021/08/15 05:19:00;;;;;;;5.70;4.20;;;27.60;52.70;;;;;;5034184;28;20036;-62
2021/08/15 05:21:26;;;;;;;5.18;4.47;;;27.60;52.80;;;;;;5042794;28;20041;-63
2021/08/15 05:23:52;;;;;;;6.00;5.03;;;27.50;52.80;;;;;;5067000;28;20029;-61
2021/08/15 05:26:18;;;;;;;6.13;5.13;;;27.40;52.70;;;;;;5055225;28;20025;-67
2021/08/15 05:28:44;;;;;;;6.45;4.50;;;27.10;53.60;;;;;;5048196;28;20040;-62
2021/08/15 05:31:09;;;;;;;6.75;4.47;;;27.00;53.90;;;;;;5048774;28;20091;-64
2021/08/15 05:33:35;;;;;;;7.82;4.60;;;27.00;54.10;;;;;;5045964;28;20384;-63
2021/08/15 05:36:00;;;;;;;5.82;4.70;;;27.00;54.00;;;;;;5049650;28;20063;-67
2021/08/15 05:38:26;;;;;;;5.68;4.53;;;27.10;54.10;;;;;;5047609;28;20025;-68
2021/08/15 05:40:52;;;;;;;5.15;4.63;;;27.10;54.00;;;;;;5049089;28;20350;-66
2021/08/15 05:43:17;;;;;;;5.40;4.30;;;27.10;54.00;;;;;;5046389;28;20037;-62
2021/08/15 05:45:43;;;;;;;5.82;4.50;;;27.10;54.10;;;;;;5050221;28;20021;-68
2021/08/15 05:48:09;;;;;;;7.20;4.57;;;27.10;54.10;;;;;;5048436;28;20200;-64
2021/08/15 05:50:35;;;;;;;6.38;4.40;;;27.10;54.30;;;;;;5054556;28;20115;-64
2021/08/15 05:53:01;;;;;;;5.38;4.30;;;27.10;54.30;;;;;;5050071;28;20025;-66
2021/08/15 05:55:26;;;;;;;6.57;4.80;;;27.10;54.40;;;;;;5050065;28;20017;-63
2021/08/15 05:57:52;;;;;;;5.10;4.35;;;27.10;54.60;;;;;;5036734;28;20037;-67
2021/08/15 06:00:18;;;;;;;5.95;4.57;;;27.10;54.60;;;;;;5047945;28;20037;-62
2021/08/15 06:02:43;;;;;;;6.63;4.57;;;27.10;54.70;;;;;;5045476;28;20021;-63
2021/08/15 06:05:10;;;;;;;6.45;4.95;;;27.10;54.80;;;;;;5048356;28;20025;-61
2021/08/15 06:07:36;;;;;;;6.82;5.05;;;27.10;54.80;;;;;;5046784;28;20524;-67
2021/08/15 06:10:02;;;;;;;7.55;4.72;;;27.00;54.90;;;;;;5037732;28;20028;-66
2021/08/15 06:12:28;;;;;;;6.57;5.38;;;27.00;55.00;;;;;;5046552;28;20098;-64
2021/08/15 06:14:53;;;;;;;6.35;4.47;;;27.00;55.10;;;;;;5053710;28;20029;-62
2021/08/15 06:17:19;;;;;;;7.22;6.10;;;27.00;55.40;;;;;;5048268;28;20595;-68
2021/08/15 06:19:44;;;;;;;7.03;6.30;;;26.90;56.00;;;;;;5044377;28;20033;-62
2021/08/15 06:22:10;;;;;;;6.95;4.95;;;26.70;56.70;;;;;;5051558;28;20392;-64
2021/08/15 06:24:36;;;;;;;5.88;4.95;;;26.70;56.60;;;;;;5038320;28;20124;-68
2021/08/15 06:27:03;;;;;;;6.82;5.22;;;26.70;56.60;;;;;;5045876;28;20578;-65
2021/08/15 06:29:29;;;;;;;6.85;5.13;;;26.70;56.50;;;;;;5050505;28;20033;-66
2021/08/15 06:31:54;;;;;;;7.35;4.68;;;26.80;56.40;;;;;;5047524;28;20473;-64
2021/08/15 06:34:20;;;;;;;5.30;4.50;;;26.80;56.40;;;;;;5045243;28;20040;-66
2021/08/15 06:36:45;;;;;;;5.55;4.50;;;26.80;56.30;;;;;;5045431;28;20017;-66
2021/08/15 06:39:11;;;;;;;6.95;4.43;;;26.80;56.20;;;;;;5046728;28;20511;-66
2021/08/15 06:41:37;;;;;;;5.43;4.40;;;26.80;56.20;;;;;;5040298;28;20150;-65
2021/08/15 06:44:03;;;;;;;6.05;4.45;;;26.90;56.20;;;;;;5042596;28;20017;-65
2021/08/15 06:46:29;;;;;;;4.85;4.35;;;26.90;56.20;;;;;;5034266;28;20424;-64
2021/08/15 06:48:54;;;;;;;6.75;4.47;;;26.90;56.10;;;;;;5044525;28;20045;-61
2021/08/15 06:51:20;;;;;;;6.05;3.95;;;26.90;56.10;;;;;;5047824;28;20035;-65
2021/08/15 06:53:45;;;;;;;5.32;4.15;;;26.90;56.60;;;;;;5030439;28;20069;-65
2021/08/15 06:56:12;;;;;;;4.72;3.97;;;26.90;56.00;;;;;;5038533;28;20027;-65
2021/08/15 06:58:38;;;;;;;5.00;4.28;;;26.90;56.00;;;;;;5042780;28;20056;-61
2021/08/15 07:01:04;;;;;;;5.68;4.13;;;26.90;56.00;;;;;;5045678;28;20056;-63
2021/08/15 07:03:31;;;;;;;5.50;4.07;;;27.00;56.10;;;;;;5040133;28;20031;-61
2021/08/15 07:05:57;;;;;;;5.85;3.92;;;27.00;56.00;;;;;;5033246;28;20551;-62
2021/08/15 07:08:22;;;;;;;5.13;4.20;;;27.00;56.00;;;;;;5040443;28;20069;-61
2021/08/15 07:10:49;;;;;;;5.30;3.97;;;26.90;56.00;;;;;;5045061;28;20049;-62
2021/08/15 07:13:19;;;;;;;5.28;4.18;;;27.00;56.00;;;;;;5038655;28;20194;-65
2021/08/15 07:15:45;;;;;;;5.72;4.10;;;27.00;56.00;;;;;;5037869;28;20373;-65
2021/08/15 07:18:11;;;;;;;5.55;3.83;;;27.00;56.00;;;;;;5044112;28;20110;-66
2021/08/15 07:20:36;;;;;;;5.70;3.78;;;27.00;56.00;;;;;;5044493;28;20021;-65
2021/08/15 07:23:02;;;;;;;5.10;3.75;;;27.00;56.00;;;;;;5038195;28;20076;-59
2021/08/15 07:25:30;;;;;;;5.47;3.92;;;27.00;56.00;;;;;;5039787;28;20064;-65
2021/08/15 07:27:58;;;;;;;5.07;4.07;;;27.00;56.00;;;;;;5043170;28;20556;-65
2021/08/15 07:30:24;;;;;;;5.13;4.50;;;27.00;56.00;;;;;;5045557;28;20335;-59
2021/08/15 07:32:56;;;;;;;6.85;3.90;;;27.00;56.00;;;;;;5042091;28;20123;-65
2021/08/15 07:35:22;;;;;;;5.32;3.72;;;27.00;55.90;;;;;;5037911;28;20036;-62
2021/08/15 07:37:48;;;;;;;4.82;3.70;;;27.00;56.40;;;;;;5035310;28;20061;-61
2021/08/15 07:40:15;;;;;;;4.57;3.42;;;27.00;55.90;;;;;;5043959;28;20021;-65
2021/08/15 07:42:41;;;;;;;5.47;4.05;;;27.00;55.90;;;;;;5038381;28;20080;-62
2021/08/15 07:45:07;;;;;;;5.35;3.85;;;27.00;55.90;;;;;;5044117;28;20468;-64
2021/08/15 07:47:33;;;;;;;5.18;4.00;;;27.00;55.90;;;;;;5047210;28;20206;-65
2021/08/15 07:49:58;;;;;;;4.32;3.47;;;27.00;55.90;;;;;;5042773;28;20220;-60
2021/08/15 07:52:24;;;;;;;4.30;3.83;;;27.10;56.00;;;;;;5046638;28;20040;-62
2021/08/15 07:54:50;;;;;;;4.38;3.70;;;27.00;55.90;;;;;;5044638;28;20516;-62
2021/08/15 07:57:16;;;;;;;5.57;3.90;;;27.00;55.90;;;;;;5037832;28;20038;-64
2021/08/15 07:59:42;;;;;;;4.43;3.55;;;27.00;55.90;;;;;;5039261;28;20521;-63
2021/08/15 08:02:07;;;;;;;4.28;3.70;;;27.10;56.00;;;;;;5047787;28;20029;-63
2021/08/15 08:04:33;;;;;;;4.70;3.75;;;27.00;55.90;;;;;;5044942;28;20035;-65
2021/08/15 08:07:02;;;;;;;5.03;3.67;;;27.10;56.00;;;;;;5048651;28;20067;-66
2021/08/15 08:09:28;;;;;;;4.25;3.60;;;27.10;56.00;;;;;;5040416;28;20044;-65
2021/08/15 08:11:55;;;;;;;5.55;3.60;;;27.10;56.00;;;;;;5039539;28;20041;-64
2021/08/15 08:14:24;;;;;;;4.13;3.63;;;27.10;56.00;;;;;;5053691;28;20029;-62
2021/08/15 08:16:49;;;;;;;5.25;4.28;;;27.10;56.00;;;;;;5058304;28;20370;-61
2021/08/15 08:19:15;;;;;;;5.65;3.90;;;27.10;56.00;;;;;;5039716;28;20098;-65
2021/08/15 08:21:41;;;;;;;4.68;4.03;;;27.10;56.00;;;;;;5042740;28;20079;-63
2021/08/15 08:24:08;;;;;;;4.65;3.78;;;27.10;56.00;;;;;;5034302;28;20056;-63
2021/08/15 08:26:34;;;;;;;4.78;4.05;;;27.10;56.00;;;;;;5031363;28;20060;-62
2021/08/15 08:29:00;;;;;;;4.63;3.72;;;27.10;56.00;;;;;;5041256;28;20029;-62
2021/08/15 08:31:26;;;;;;;5.55;3.90;;;27.10;56.00;;;;;;5041907;28;20354;-61
2021/08/15 08:33:53;;;;;;;4.32;3.72;;;27.10;56.00;;;;;;5041056;28;20020;-63
2021/08/15 08:36:19;;;;;;;4.68;3.80;;;27.10;56.00;;;;;;5043884;28;20037;-65
2021/08/15 08:38:45;;;;;;;5.07;3.80;;;27.10;56.00;;;;;;5044317;28;20043;-62
2021/08/15 08:41:13;;;;;;;4.78;3.45;;;27.10;56.00;;;;;;5045671;28;20083;-62
2021/08/15 08:43:40;;;;;;;5.40;4.00;;;27.10;56.00;;;;;;5043002;28;20128;-62
2021/08/15 08:46:08;;;;;;;5.38;3.63;;;27.10;56.00;;;;;;5053505;28;20048;-64
2021/08/15 08:48:34;;;;;;;4.10;3.50;;;27.10;56.00;;;;;;5040207;28;20037;-66
2021/08/15 08:51:00;;;;;;;4.40;4.00;;;27.10;56.00;;;;;;5042393;28;20032;-65
2021/08/15 08:53:26;;;;;;;4.82;3.92;;;27.10;56.00;;;;;;5057686;28;20053;-65
2021/08/15 08:55:52;;;;;;;4.50;3.95;;;27.10;56.00;;;;;;5053996;28;20132;-62
2021/08/15 08:58:18;;;;;;;4.43;3.80;;;27.10;56.00;;;;;;5049811;28;20475;-65
2021/08/15 09:00:43;;;;;;;5.65;3.83;;;27.10;56.00;;;;;;5033819;28;20053;-63
2021/08/15 09:03:09;;;;;;;5.30;3.78;;;27.20;56.00;;;;;;5041825;28;21032;-64
2021/08/15 09:05:35;;;;;;;4.47;3.67;;;27.20;56.10;;;;;;5046988;28;20025;-65
2021/08/15 09:08:02;;;;;;;4.72;3.58;;;27.20;56.00;;;;;;5046065;28;20112;-61
2021/08/15 09:10:34;;;;;;;4.30;3.63;;;27.20;56.00;;;;;;5025609;28;20060;-63
2021/08/15 09:13:02;;;;;;;4.15;3.65;;;27.20;56.00;;;;;;5041378;28;20052;-64
2021/08/15 09:15:30;;;;;;;4.40;3.38;;;27.20;56.50;;;;;;5047594;28;20098;-63
2021/08/15 09:17:56;;;;;;;4.03;3.50;;;27.20;56.00;;;;;;5053474;28;20048;-61
2021/08/15 09:20:32;;;;;;;3.97;3.45;;;27.20;56.10;;;;;;5045452;28;20064;-66
2021/08/15 09:22:57;;;;;;;4.80;3.80;;;27.20;56.00;;;;;;5029229;28;20121;-62
2021/08/15 09:25:24;;;;;;;4.22;3.47;;;27.20;56.00;;;;;;5043152;28;20770;-62
2021/08/15 09:27:55;;;;;;;4.40;3.55;;;27.20;56.00;;;;;;5031011;28;20112;-65
2021/08/15 09:30:29;;;;;;;4.22;3.47;;;27.20;56.00;;;;;;5031426;28;20659;-63
2021/08/15 09:32:59;;;;;;;4.28;3.80;;;27.20;56.00;;;;;;5041852;28;20043;-64
2021/08/15 09:35:37;;;;;;;4.22;3.40;;;27.20;56.00;;;;;;5046357;28;20040;-66
2021/08/15 09:38:14;;;;;;;4.03;3.63;;;27.20;56.50;;;;;;5042037;28;20029;-62
2021/08/15 09:40:45;;;;;;;5.10;3.47;;;27.20;56.10;;;;;;5044673;28;20041;-61
2021/08/15 09:43:25;;;;;;;3.72;3.30;;;27.20;56.00;;;;;;5041854;28;20048;-65
2021/08/15 09:45:56;;;;;;;3.58;3.20;;;27.20;56.10;;;;;;5041877;28;20404;-62
2021/08/15 09:48:39;;;;;;;3.83;3.28;;;27.30;56.10;;;;;;5045593;28;20523;-62
2021/08/15 09:51:20;;;;;;;4.15;3.58;;;27.30;56.10;;;;;;5040294;28;20456;-64
2021/08/15 09:53:49;;;;;;;4.22;3.38;;;27.30;56.20;;;;;;5035144;28;20032;-67
2021/08/15 09:56:14;;;;;;;3.90;3.33;;;27.30;56.20;;;;;;5037316;28;20049;-61
2021/08/15 09:58:40;;;;;;;3.70;3.40;;;27.30;56.20;;;;;;5044263;28;20048;-62
2021/08/15 10:01:08;;;;;;;4.00;3.22;;;27.30;56.20;;;;;;5044638;28;20037;-64
2021/08/15 10:03:35;;;;;;;3.58;3.05;;;27.30;56.20;;;;;;5045059;28;20039;-66
2021/08/15 10:06:01;;;;;;;3.67;3.15;;;27.30;56.20;;;;;;5047713;28;20089;-64
2021/08/15 10:08:28;;;;;;;3.80;3.03;;;27.30;56.20;;;;;;5046823;28;20463;-63
2021/08/15 10:10:55;;;;;;;3.95;3.53;;;27.30;56.20;;;;;;5045815;28;20377;-66
2021/08/15 10:13:20;;;;;;;3.85;3.28;;;27.30;56.20;;;;;;5033956;28;20079;-64
2021/08/15 10:16:02;;;;;;;3.53;3.15;;;27.30;56.20;;;;;;5042630;28;20024;-62
2021/08/15 10:18:30;;;;;;;3.40;2.90;;;27.30;56.20;;;;;;5047455;28;20036;-66
2021/08/15 10:21:23;;;;;;;4.38;3.45;;;27.30;56.20;;;;;;5048494;28;20068;-67
2021/08/15 10:23:49;;;;;;;3.95;3.40;;;27.40;56.20;;;;;;5037256;28;20180;-60
2021/08/15 10:26:36;;;;;;;3.53;3.15;;;27.40;56.20;;;;;;5047058;28;20075;-65
2021/08/15 10:29:03;;;;;;;3.90;3.05;;;27.40;56.20;;;;;;5047201;28;20413;-61
2021/08/15 10:32:07;;;;;;;3.30;2.90;;;27.40;56.20;;;;;;5046175;28;20032;-66
2021/08/15 10:34:54;;;;;;;3.60;3.05;;;27.40;56.20;;;;;;5038632;28;20121;-62
2021/08/15 10:37:23;;;;;;;3.47;3.03;;;27.40;56.20;;;;;;5047346;28;20039;-66
2021/08/15 10:39:49;;;;;;;4.15;3.17;;;27.40;56.20;;;;;;5047696;28;20457;-66
2021/08/15 10:42:43;;;;;;;4.10;3.15;;;27.40;56.10;;;;;;5045408;28;20037;-64
2021/08/15 10:45:12;;;;;;;4.03;3.10;;;27.50;56.20;;;;;;5041572;28;20446;-65
2021/08/15 10:47:39;;;;;;;3.70;2.97;;;27.50;56.20;;;;;;5041847;28;20017;-64
2021/08/15 10:50:07;;;;;;;4.28;3.30;;;27.50;56.20;;;;;;5040731;28;20048;-66
2021/08/15 10:52:40;;;;;;;3.80;2.90;;;27.40;56.00;;;;;;5042744;28;20037;-63
2021/08/15 10:55:17;;;;;;;3.38;2.85;;;27.40;56.10;;;;;;5044697;28;20829;-66
2021/08/15 10:57:49;;;;;;;3.25;2.65;;;27.40;56.00;;;;;;5042963;28;20170;-66
2021/08/15 11:00:30;;;;;;;3.78;2.95;;;27.50;56.20;;;;;;5039934;28;20052;-61
2021/08/15 11:03:21;;;;;;;3.72;2.88;;;27.50;56.20;;;;;;5037612;28;20025;-63
2021/08/15 11:05:47;;;;;;;3.33;2.75;;;27.50;56.20;;;;;;5039516;28;20053;-60
2021/08/15 11:08:31;;;;;;;3.35;2.78;;;27.50;56.10;;;;;;5044875;28;20025;-67
2021/08/15 11:11:07;;;;;;;3.30;2.78;;;27.50;56.00;;;;;;5037876;28;20035;-65
2021/08/15 11:13:34;;;;;;;3.40;2.72;;;27.50;56.00;;;;;;5027524;28;20045;-63
2021/08/15 11:16:25;;;;;;;2.83;2.38;;;27.50;56.00;;;;;;5042363;28;20038;-64
2021/08/15 11:19:09;;;;;;;3.33;2.90;;;27.50;56.00;;;;;;5039037;28;20059;-66
2021/08/15 11:22:01;;;;;;;3.22;2.80;;;27.60;56.00;;;;;;5039880;28;20117;-65
2021/08/15 11:24:27;;;;;;;3.70;3.13;;;27.50;56.00;;;;;;5057688;28;20048;-66
2021/08/15 11:26:54;;;;;;;3.63;2.63;;;27.50;56.10;;;;;;5039433;28;20022;-67
2021/08/15 11:29:20;;;;;;;3.15;2.65;;;27.60;56.70;;;;;;5044292;28;20227;-67
2021/08/15 11:31:50;;;;;;;4.25;2.67;;;27.60;56.20;;;;;;5024846;28;20203;-65
2021/08/15 11:34:16;;;;;;;3.35;2.80;;;27.60;56.10;;;;;;5039905;28;20567;-61
2021/08/15 11:36:42;;;;;;;3.67;2.95;;;27.60;56.20;;;;;;5047012;28;20120;-68
2021/08/15 11:39:08;;;;;;;3.63;2.90;;;27.60;56.20;;;;;;5045893;28;20186;-62
2021/08/15 11:41:35;;;;;;;3.20;2.80;;;27.60;56.20;;;;;;5040157;28;20036;-66
2021/08/15 11:44:00;;;;;;;3.25;2.90;;;27.60;56.20;;;;;;5045360;28;20040;-64
2021/08/15 11:46:26;;;;;;;3.05;2.63;;;27.60;56.40;;;;;;5051214;28;20026;-66
2021/08/15 11:48:52;;;;;;;2.97;2.25;;;27.60;56.20;;;;;;5049183;28;20021;-66
2021/08/15 11:51:17;;;;;;;3.30;2.70;;;27.60;56.20;;;;;;5043781;28;20195;-65
2021/08/15 11:53:47;;;;;;;3.53;2.80;;;27.60;56.20;;;;;;5050189;28;20025;-64
2021/08/15 11:56:18;;;;;;;3.10;2.53;;;27.70;56.30;;;;;;5046364;28;20029;-68
2021/08/15 11:58:44;;;;;;;4.38;2.53;;;27.70;56.20;;;;;;5034643;28;20024;-63
2021/08/15 12:01:10;;;;;;;3.50;2.70;;;27.70;56.30;;;;;;5032566;28;20500;-62
2021/08/15 12:03:35;;;;;;;2.97;2.58;;;27.70;56.30;;;;;;5037271;28;20025;-67
2021/08/15 12:06:04;;;;;;;2.88;2.50;;;27.70;56.30;;;;;;5033862;28;20456;-66
2021/08/15 12:08:41;;;;;;;3.63;2.70;;;27.70;56.40;;;;;;5042084;28;20022;-63
2021/08/15 12:11:27;;;;;;;3.20;2.63;;;27.70;56.40;;;;;;5038080;28;20274;-63
2021/08/15 12:14:14;;;;;;;2.90;2.58;;;27.70;56.30;;;;;;5040818;28;20037;-67
2021/08/15 12:16:54;;;;;;;3.67;2.70;;;27.70;56.40;;;;;;5043173;28;20106;-62
2021/08/15 12:19:21;;;;;;;3.70;2.75;;;27.80;57.00;;;;;;5046240;28;20025;-66
2021/08/15 12:21:47;;;;;;;4.63;2.78;;;27.70;56.30;;;;;;5050871;28;20611;-65
2021/08/15 12:24:19;;;;;;;3.58;2.80;;;27.70;56.30;;;;;;5051505;28;20074;-67
2021/08/15 12:27:05;;;;;;;3.53;2.63;;;27.80;56.40;;;;;;5049247;28;20025;-66
2021/08/15 12:29:33;;;;;;;3.20;2.67;;;27.80;56.40;;;;;;5050616;28;20593;-65
2021/08/15 12:32:29;;;;;;;3.30;2.70;;;27.80;56.40;;;;;;5050170;28;20093;-66
2021/08/15 12:34:57;;;;;;;3.20;2.70;;;27.80;56.40;;;;;;5036080;28;20420;-66
2021/08/15 12:37:24;;;;;;;3.58;2.65;;;27.80;56.40;;;;;;5048226;28;20040;-65
2021/08/15 12:40:04;;;;;;;2.88;2.53;;;27.80;56.40;;;;;;5050092;28;20059;-66
2021/08/15 12:42:32;;;;;;;3.17;2.50;;;27.80;56.30;;;;;;5046321;28;20029;-68
2021/08/15 12:45:04;;;;;;;3.50;2.60;;;27.80;56.30;;;;;;5048089;28;20040;-66
2021/08/15 12:47:38;;;;;;;3.28;2.38;;;27.90;56.40;;;;;;5047537;28;20079;-65
2021/08/15 12:50:22;;;;;;;3.08;2.58;;;27.80;56.30;;;;;;5045007;28;20036;-64
2021/08/15 12:52:52;;;;;;;3.25;2.88;;;27.80;56.40;;;;;;5046988;28;20104;-67